sensor_id;sensor_type;location;lat;lon;timestamp;pressure;altitude;pressure_sealevel;temperature;humidity
71948;BME280;63257;55.082;38.772;2023-07-13T00:00:21;98991.09;;;12.56;79.52
71948;BME280;63257;55.082;38.772;2023-07-13T00:02:47;98981.00;;;12.50;79.19
71948;BME280;63257;55.082;38.772;2023-07-13T00:05:13;98982.31;;;12.56;78.61
71948;BME280;63257;55.082;38.772;2023-07-13T00:07:39;98970.41;;;12.50;78.92
71948;BME280;63257;55.082;38.772;2023-07-13T00:10:05;98975.69;;;12.50;78.84
71948;BME280;63257;55.082;38.772;2023-07-13T00:12:35;98968.22;;;12.55;78.70
71948;BME280;63257;55.082;38.772;2023-07-13T00:15:12;98983.75;;;12.60;79.22
71948;BME280;63257;55.082;38.772;2023-07-13T00:17:38;98991.94;;;12.57;79.03
71948;BME280;63257;55.082;38.772;2023-07-13T00:20:05;98983.03;;;12.58;79.08
71948;BME280;63257;55.082;38.772;2023-07-13T00:22:31;98972.94;;;12.52;79.45
71948;BME280;63257;55.082;38.772;2023-07-13T00:24:57;98978.22;;;12.52;79.13
71948;BME280;63257;55.082;38.772;2023-07-13T00:27:23;98977.84;;;12.56;79.55
71948;BME280;63257;55.082;38.772;2023-07-13T00:29:49;98989.91;;;12.61;78.99
71948;BME280;63257;55.082;38.772;2023-07-13T00:32:15;98969.53;;;12.50;78.98
71948;BME280;63257;55.082;38.772;2023-07-13T00:34:41;98991.94;;;12.57;78.92
71948;BME280;63257;55.082;38.772;2023-07-13T00:37:07;98982.91;;;12.48;79.08
71948;BME280;63257;55.082;38.772;2023-07-13T00:39:35;98965.22;;;12.49;78.90
71948;BME280;63257;55.082;38.772;2023-07-13T00:42:03;98988.44;;;12.56;79.22
71948;BME280;63257;55.082;38.772;2023-07-13T00:44:30;98993.63;;;12.58;78.92
71948;BME280;63257;55.082;38.772;2023-07-13T00:46:56;98987.50;;;12.58;79.11
71948;BME280;63257;55.082;38.772;2023-07-13T00:49:26;98983.50;;;12.52;78.86
71948;BME280;63257;55.082;38.772;2023-07-13T00:52:02;98981.47;;;12.55;78.55
71948;BME280;63257;55.082;38.772;2023-07-13T00:54:33;98984.59;;;12.61;78.24
71948;BME280;63257;55.082;38.772;2023-07-13T00:57:02;98979.06;;;12.52;78.25
71948;BME280;63257;55.082;38.772;2023-07-13T00:59:29;98993.84;;;12.55;78.75
71948;BME280;63257;55.082;38.772;2023-07-13T01:01:56;98984.09;;;12.55;78.61
71948;BME280;63257;55.082;38.772;2023-07-13T01:04:24;98982.56;;;12.53;79.19
71948;BME280;63257;55.082;38.772;2023-07-13T01:06:51;98987.72;;;12.54;79.03
71948;BME280;63257;55.082;38.772;2023-07-13T01:09:17;98967.63;;;12.52;78.86
71948;BME280;63257;55.082;38.772;2023-07-13T01:11:43;98982.31;;;12.56;78.67
71948;BME280;63257;55.082;38.772;2023-07-13T01:14:10;98978.22;;;12.52;79.09
71948;BME280;63257;55.082;38.772;2023-07-13T01:16:37;98985.66;;;12.58;78.78
71948;BME280;63257;55.082;38.772;2023-07-13T01:19:14;98977.72;;;12.58;79.00
71948;BME280;63257;55.082;38.772;2023-07-13T01:21:41;98978.47;;;12.60;78.96
71948;BME280;63257;55.082;38.772;2023-07-13T01:24:09;98978.09;;;12.65;78.98
71948;BME280;63257;55.082;38.772;2023-07-13T01:26:35;98969.47;;;12.63;79.23
71948;BME280;63257;55.082;38.772;2023-07-13T01:29:00;98971.13;;;12.64;79.04
71948;BME280;63257;55.082;38.772;2023-07-13T01:31:27;98965.47;;;12.57;79.54
71948;BME280;63257;55.082;38.772;2023-07-13T01:33:53;98975.69;;;12.62;79.24
71948;BME280;63257;55.082;38.772;2023-07-13T01:36:20;98955.97;;;12.54;79.12
71948;BME280;63257;55.082;38.772;2023-07-13T01:38:46;98978.09;;;12.65;78.92
71948;BME280;63257;55.082;38.772;2023-07-13T01:41:12;98968.97;;;12.69;78.65
71948;BME280;63257;55.082;38.772;2023-07-13T01:43:38;98981.38;;;12.68;78.12
71948;BME280;63257;55.082;38.772;2023-07-13T01:46:06;98968.47;;;12.64;77.74
71948;BME280;63257;55.082;38.772;2023-07-13T01:48:33;98963.41;;;12.72;77.77
71948;BME280;63257;55.082;38.772;2023-07-13T01:50:59;98970.41;;;12.73;77.21
71948;BME280;63257;55.082;38.772;2023-07-13T01:53:25;98961.63;;;12.72;77.34
71948;BME280;63257;55.082;38.772;2023-07-13T01:55:51;98955.97;;;12.77;77.12
71948;BME280;63257;55.082;38.772;2023-07-13T01:58:17;98962.13;;;12.78;77.15
71948;BME280;63257;55.082;38.772;2023-07-13T02:00:43;98967.44;;;12.78;77.20
71948;BME280;63257;55.082;38.772;2023-07-13T02:03:08;98971.84;;;12.77;76.93
71948;BME280;63257;55.082;38.772;2023-07-13T02:05:34;98944.78;;;12.73;76.73
71948;BME280;63257;55.082;38.772;2023-07-13T02:08:00;98961.63;;;12.84;76.38
71948;BME280;63257;55.082;38.772;2023-07-13T02:10:26;98964.16;;;12.85;76.59
71948;BME280;63257;55.082;38.772;2023-07-13T02:12:52;98955.50;;;12.83;76.18
71948;BME280;63257;55.082;38.772;2023-07-13T02:15:18;98965.59;;;12.89;76.28
71948;BME280;63257;55.082;38.772;2023-07-13T02:17:44;98962.00;;;12.90;76.58
71948;BME280;63257;55.082;38.772;2023-07-13T02:20:10;98962.81;;;12.91;76.04
71948;BME280;63257;55.082;38.772;2023-07-13T02:22:36;98967.16;;;12.92;76.07
71948;BME280;63257;55.082;38.772;2023-07-13T02:25:02;98961.38;;;12.87;75.95
71948;BME280;63257;55.082;38.772;2023-07-13T02:27:30;98952.09;;;12.93;75.65
71948;BME280;63257;55.082;38.772;2023-07-13T02:29:59;98963.31;;;12.96;76.07
71948;BME280;63257;55.082;38.772;2023-07-13T02:32:25;98957.56;;;13.02;75.57
71948;BME280;63257;55.082;38.772;2023-07-13T02:34:52;98959.09;;;13.05;75.48
71948;BME280;63257;55.082;38.772;2023-07-13T02:37:18;98964.38;;;13.05;75.49
71948;BME280;63257;55.082;38.772;2023-07-13T02:39:44;98952.72;;;13.07;75.76
71948;BME280;63257;55.082;38.772;2023-07-13T02:42:10;98962.09;;;13.12;75.15
71948;BME280;63257;55.082;38.772;2023-07-13T02:44:37;98949.84;;;13.11;75.34
71948;BME280;63257;55.082;38.772;2023-07-13T02:47:04;98956.31;;;13.18;75.14
71948;BME280;63257;55.082;38.772;2023-07-13T02:49:29;98948.97;;;13.10;75.54
71948;BME280;63257;55.082;38.772;2023-07-13T02:51:55;98959.53;;;13.21;75.14
71948;BME280;63257;55.082;38.772;2023-07-13T02:54:21;98956.19;;;13.19;75.68
71948;BME280;63257;55.082;38.772;2023-07-13T02:56:47;98955.25;;;13.20;75.48
71948;BME280;63257;55.082;38.772;2023-07-13T02:59:13;98937.28;;;13.13;75.21
71948;BME280;63257;55.082;38.772;2023-07-13T03:01:38;98954.38;;;13.20;75.27
71948;BME280;63257;55.082;38.772;2023-07-13T03:04:05;98945.00;;;13.16;75.28
71948;BME280;63257;55.082;38.772;2023-07-13T03:06:34;98942.56;;;13.24;75.44
71948;BME280;63257;55.082;38.772;2023-07-13T03:09:00;98940.91;;;13.23;75.51
71948;BME280;63257;55.082;38.772;2023-07-13T03:11:28;98941.88;;;13.22;75.43
71948;BME280;63257;55.082;38.772;2023-07-13T03:14:03;98947.88;;;13.24;75.05
71948;BME280;63257;55.082;38.772;2023-07-13T03:16:33;98943.88;;;13.30;75.60
71948;BME280;63257;55.082;38.772;2023-07-13T03:18:59;98926.44;;;13.27;75.86
71948;BME280;63257;55.082;38.772;2023-07-13T03:21:26;98951.47;;;13.34;75.64
71948;BME280;63257;55.082;38.772;2023-07-13T03:23:52;98942.09;;;13.42;75.25
71948;BME280;63257;55.082;38.772;2023-07-13T03:26:19;98954.38;;;13.43;75.04
71948;BME280;63257;55.082;38.772;2023-07-13T03:28:46;98936.53;;;13.33;74.94
71948;BME280;63257;55.082;38.772;2023-07-13T03:31:19;98951.84;;;13.41;75.01
71948;BME280;63257;55.082;38.772;2023-07-13T03:33:46;98957.03;;;13.43;74.97
71948;BME280;63257;55.082;38.772;2023-07-13T03:36:16;98942.91;;;13.42;75.28
71948;BME280;63257;55.082;38.772;2023-07-13T03:38:53;98951.59;;;13.44;75.32
71948;BME280;63257;55.082;38.772;2023-07-13T03:41:22;98947.38;;;13.42;75.92
71948;BME280;63257;55.082;38.772;2023-07-13T03:43:50;98938.59;;;13.41;75.76
71948;BME280;63257;55.082;38.772;2023-07-13T03:46:18;98940.78;;;13.36;75.54
71948;BME280;63257;55.082;38.772;2023-07-13T03:48:46;98948.94;;;13.44;76.45
71948;BME280;63257;55.082;38.772;2023-07-13T03:51:14;98950.28;;;13.38;76.35
71948;BME280;63257;55.082;38.772;2023-07-13T03:53:42;98961.47;;;13.42;76.69
71948;BME280;63257;55.082;38.772;2023-07-13T03:56:09;98943.16;;;13.39;76.27
71948;BME280;63257;55.082;38.772;2023-07-13T03:58:38;98957.50;;;13.48;76.68
71948;BME280;63257;55.082;38.772;2023-07-13T04:01:11;98962.56;;;13.51;76.25
71948;BME280;63257;55.082;38.772;2023-07-13T04:03:38;98946.03;;;13.47;76.47
71948;BME280;63257;55.082;38.772;2023-07-13T04:06:07;98963.47;;;13.61;76.45
71948;BME280;63257;55.082;38.772;2023-07-13T04:08:36;98959.88;;;13.62;76.49
71948;BME280;63257;55.082;38.772;2023-07-13T04:11:04;98954.63;;;13.72;75.89
71948;BME280;63257;55.082;38.772;2023-07-13T04:13:30;98957.91;;;13.76;76.27
71948;BME280;63257;55.082;38.772;2023-07-13T04:15:56;98956.06;;;13.76;75.72
71948;BME280;63257;55.082;38.772;2023-07-13T04:18:22;98966.31;;;13.81;75.59
71948;BME280;63257;55.082;38.772;2023-07-13T04:20:49;98955.50;;;13.72;75.52
71948;BME280;63257;55.082;38.772;2023-07-13T04:23:16;98962.25;;;13.77;75.51
71948;BME280;63257;55.082;38.772;2023-07-13T04:25:46;98939.34;;;13.76;75.65
71948;BME280;63257;55.082;38.772;2023-07-13T04:28:15;98966.63;;;13.87;75.72
71948;BME280;63257;55.082;38.772;2023-07-13T04:30:43;98953.50;;;13.86;75.59
71948;BME280;63257;55.082;38.772;2023-07-13T04:33:09;98949.50;;;13.91;75.32
71948;BME280;63257;55.082;38.772;2023-07-13T04:35:35;98953.97;;;13.91;75.34
71948;BME280;63257;55.082;38.772;2023-07-13T04:38:01;98955.88;;;14.00;75.35
71948;BME280;63257;55.082;38.772;2023-07-13T04:40:28;98954.63;;;14.04;75.14
71948;BME280;63257;55.082;38.772;2023-07-13T04:42:53;98944.38;;;14.00;74.33
71948;BME280;63257;55.082;38.772;2023-07-13T04:45:19;98956.63;;;14.12;74.57
71948;BME280;63257;55.082;38.772;2023-07-13T04:47:45;98943.16;;;14.04;74.39
71948;BME280;63257;55.082;38.772;2023-07-13T04:50:13;98961.09;;;14.12;74.61
71948;BME280;63257;55.082;38.772;2023-07-13T04:52:46;98917.28;;;13.96;73.88
71948;BME280;63257;55.082;38.772;2023-07-13T04:55:13;98958.25;;;14.24;74.07
71948;BME280;63257;55.082;38.772;2023-07-13T04:57:39;98943.88;;;14.27;73.72
71948;BME280;63257;55.082;38.772;2023-07-13T05:00:06;98954.31;;;14.40;73.45
71948;BME280;63257;55.082;38.772;2023-07-13T05:02:33;98942.84;;;14.39;73.22
71948;BME280;63257;55.082;38.772;2023-07-13T05:05:01;98944.78;;;14.58;73.09
71948;BME280;63257;55.082;38.772;2023-07-13T05:07:30;98943.22;;;14.77;72.37
71948;BME280;63257;55.082;38.772;2023-07-13T05:09:55;98948.84;;;14.84;71.97
71948;BME280;63257;55.082;38.772;2023-07-13T05:12:21;98953.78;;;14.98;71.93
71948;BME280;63257;55.082;38.772;2023-07-13T05:14:47;98949.03;;;14.92;71.22
71948;BME280;63257;55.082;38.772;2023-07-13T05:17:14;98933.09;;;14.92;71.00
71948;BME280;63257;55.082;38.772;2023-07-13T05:19:40;98938.28;;;15.03;70.89
71948;BME280;63257;55.082;38.772;2023-07-13T05:22:06;98944.84;;;14.99;70.63
71948;BME280;63257;55.082;38.772;2023-07-13T05:24:32;98948.34;;;15.09;71.08
71948;BME280;63257;55.082;38.772;2023-07-13T05:26:58;98930.84;;;14.97;70.40
71948;BME280;63257;55.082;38.772;2023-07-13T05:29:23;98937.19;;;15.06;70.31
71948;BME280;63257;55.082;38.772;2023-07-13T05:31:50;98939.59;;;15.19;70.42
71948;BME280;63257;55.082;38.772;2023-07-13T05:34:16;98957.38;;;15.28;69.76
71948;BME280;63257;55.082;38.772;2023-07-13T05:36:42;98945.34;;;15.34;69.76
71948;BME280;63257;55.082;38.772;2023-07-13T05:39:08;98951.25;;;15.37;69.80
71948;BME280;63257;55.082;38.772;2023-07-13T05:41:34;98951.41;;;15.46;69.49
71948;BME280;63257;55.082;38.772;2023-07-13T05:44:00;98958.28;;;15.58;69.43
71948;BME280;63257;55.082;38.772;2023-07-13T05:46:25;98958.97;;;15.60;69.15
71948;BME280;63257;55.082;38.772;2023-07-13T05:48:51;98961.78;;;15.68;68.96
71948;BME280;63257;55.082;38.772;2023-07-13T05:51:17;98964.59;;;15.76;68.34
71948;BME280;63257;55.082;38.772;2023-07-13T05:53:43;98971.88;;;15.74;68.23
71948;BME280;63257;55.082;38.772;2023-07-13T05:56:09;98950.47;;;15.66;68.14
71948;BME280;63257;55.082;38.772;2023-07-13T05:58:34;98966.13;;;15.69;68.76
71948;BME280;63257;55.082;38.772;2023-07-13T06:01:03;98944.56;;;15.63;68.31
71948;BME280;63257;55.082;38.772;2023-07-13T06:03:30;98948.19;;;15.61;68.47
71948;BME280;63257;55.082;38.772;2023-07-13T06:05:56;98959.13;;;15.78;68.06
71948;BME280;63257;55.082;38.772;2023-07-13T06:08:21;98953.56;;;16.01;67.51
71948;BME280;63257;55.082;38.772;2023-07-13T06:10:47;98952.56;;;15.92;67.35
71948;BME280;63257;55.082;38.772;2023-07-13T06:13:13;98957.75;;;15.84;67.62
71948;BME280;63257;55.082;38.772;2023-07-13T06:15:39;98945.72;;;15.80;67.03
71948;BME280;63257;55.082;38.772;2023-07-13T06:18:04;98950.63;;;15.94;67.75
71948;BME280;63257;55.082;38.772;2023-07-13T06:20:33;98949.91;;;16.02;67.77
71948;BME280;63257;55.082;38.772;2023-07-13T06:22:59;98947.69;;;15.97;67.23
71948;BME280;63257;55.082;38.772;2023-07-13T06:25:26;98949.66;;;15.95;66.85
71948;BME280;63257;55.082;38.772;2023-07-13T06:27:52;98938.00;;;16.06;66.84
71948;BME280;63257;55.082;38.772;2023-07-13T06:30:18;98948.38;;;16.19;66.54
71948;BME280;63257;55.082;38.772;2023-07-13T06:32:44;98945.56;;;16.10;67.15
71948;BME280;63257;55.082;38.772;2023-07-13T06:35:09;98967.28;;;16.16;66.68
71948;BME280;63257;55.082;38.772;2023-07-13T06:37:38;98964.63;;;15.96;67.20
71948;BME280;63257;55.082;38.772;2023-07-13T06:40:04;98952.56;;;16.02;67.79
71948;BME280;63257;55.082;38.772;2023-07-13T06:42:30;98968.81;;;16.08;68.08
71948;BME280;63257;55.082;38.772;2023-07-13T06:44:56;98951.44;;;16.04;67.56
71948;BME280;63257;55.082;38.772;2023-07-13T06:47:21;98947.66;;;16.07;67.23
71948;BME280;63257;55.082;38.772;2023-07-13T06:49:47;98954.97;;;16.15;67.10
71948;BME280;63257;55.082;38.772;2023-07-13T06:52:13;98943.03;;;16.28;66.59
71948;BME280;63257;55.082;38.772;2023-07-13T06:54:39;98952.38;;;16.42;67.07
71948;BME280;63257;55.082;38.772;2023-07-13T06:57:05;98958.66;;;16.51;66.61
71948;BME280;63257;55.082;38.772;2023-07-13T06:59:31;98943.72;;;16.40;66.04
71948;BME280;63257;55.082;38.772;2023-07-13T07:01:57;98942.97;;;16.48;66.30
71948;BME280;63257;55.082;38.772;2023-07-13T07:04:22;98943.94;;;16.47;67.42
71948;BME280;63257;55.082;38.772;2023-07-13T07:06:48;98933.88;;;16.41;66.71
71948;BME280;63257;55.082;38.772;2023-07-13T07:09:14;98934.91;;;16.30;66.77
71948;BME280;63257;55.082;38.772;2023-07-13T07:11:42;98942.03;;;16.39;67.39
71948;BME280;63257;55.082;38.772;2023-07-13T07:14:08;98924.38;;;16.38;67.31
71948;BME280;63257;55.082;38.772;2023-07-13T07:16:34;98941.66;;;16.62;66.63
71948;BME280;63257;55.082;38.772;2023-07-13T07:19:00;98931.53;;;16.75;66.51
71948;BME280;63257;55.082;38.772;2023-07-13T07:21:25;98938.78;;;16.93;65.91
71948;BME280;63257;55.082;38.772;2023-07-13T07:23:52;98955.16;;;17.08;65.68
71948;BME280;63257;55.082;38.772;2023-07-13T07:26:18;98952.53;;;16.98;65.82
71948;BME280;63257;55.082;38.772;2023-07-13T07:28:44;98937.13;;;16.92;65.87
71948;BME280;63257;55.082;38.772;2023-07-13T07:31:10;98947.41;;;17.05;65.55
71948;BME280;63257;55.082;38.772;2023-07-13T07:33:36;98953.25;;;17.18;66.03
71948;BME280;63257;55.082;38.772;2023-07-13T07:36:02;98955.63;;;16.93;64.76
71948;BME280;63257;55.082;38.772;2023-07-13T07:38:29;98950.28;;;16.93;65.10
71948;BME280;63257;55.082;38.772;2023-07-13T07:40:54;98961.59;;;17.05;65.34
71948;BME280;63257;55.082;38.772;2023-07-13T07:43:20;98951.00;;;16.95;65.62
71948;BME280;63257;55.082;38.772;2023-07-13T07:45:46;98950.94;;;17.05;64.75
71948;BME280;63257;55.082;38.772;2023-07-13T07:48:12;98945.25;;;17.18;65.22
71948;BME280;63257;55.082;38.772;2023-07-13T07:50:38;98948.53;;;17.12;65.20
71948;BME280;63257;55.082;38.772;2023-07-13T07:53:05;98949.25;;;17.32;64.97
71948;BME280;63257;55.082;38.772;2023-07-13T07:55:34;98965.06;;;17.43;64.75
71948;BME280;63257;55.082;38.772;2023-07-13T07:58:02;98963.38;;;17.42;64.91
71948;BME280;63257;55.082;38.772;2023-07-13T08:00:28;98964.66;;;17.38;65.60
71948;BME280;63257;55.082;38.772;2023-07-13T08:02:57;98971.72;;;17.29;65.32
71948;BME280;63257;55.082;38.772;2023-07-13T08:05:23;98970.44;;;17.34;65.73
71948;BME280;63257;55.082;38.772;2023-07-13T08:07:49;98967.28;;;17.20;65.33
71948;BME280;63257;55.082;38.772;2023-07-13T08:10:15;98959.03;;;17.13;66.31
71948;BME280;63257;55.082;38.772;2023-07-13T08:12:41;98968.31;;;17.37;65.63
71948;BME280;63257;55.082;38.772;2023-07-13T08:15:10;98954.81;;;17.39;65.07
71948;BME280;63257;55.082;38.772;2023-07-13T08:17:37;98975.81;;;17.52;64.59
71948;BME280;63257;55.082;38.772;2023-07-13T08:20:03;98962.97;;;17.37;63.48
71948;BME280;63257;55.082;38.772;2023-07-13T08:22:33;98948.31;;;17.23;63.99
71948;BME280;63257;55.082;38.772;2023-07-13T08:24:59;98958.09;;;17.33;63.56
71948;BME280;63257;55.082;38.772;2023-07-13T08:27:26;98965.28;;;17.50;64.07
71948;BME280;63257;55.082;38.772;2023-07-13T08:29:53;98964.22;;;17.61;63.95
71948;BME280;63257;55.082;38.772;2023-07-13T08:32:21;98966.16;;;17.69;63.51
71948;BME280;63257;55.082;38.772;2023-07-13T08:34:47;98958.53;;;17.56;63.63
71948;BME280;63257;55.082;38.772;2023-07-13T08:37:14;98964.38;;;17.59;63.74
71948;BME280;63257;55.082;38.772;2023-07-13T08:39:40;98953.63;;;17.51;64.19
71948;BME280;63257;55.082;38.772;2023-07-13T08:48:14;98962.75;;;17.94;64.14
71948;BME280;63257;55.082;38.772;2023-07-13T08:53:55;98972.75;;;17.46;63.76
71948;BME280;63257;55.082;38.772;2023-07-13T08:56:25;98984.06;;;17.30;63.86
71948;BME280;63257;55.082;38.772;2023-07-13T08:59:00;98976.13;;;17.21;64.46
71948;BME280;63257;55.082;38.772;2023-07-13T09:04:26;98983.19;;;17.12;66.40
71948;BME280;63257;55.082;38.772;2023-07-13T09:14:56;98978.38;;;17.16;69.47
71948;BME280;63257;55.082;38.772;2023-07-13T09:17:25;98971.66;;;17.11;71.45
71948;BME280;63257;55.082;38.772;2023-07-13T09:20:10;98977.00;;;17.11;72.21
71948;BME280;63257;55.082;38.772;2023-07-13T09:22:40;98975.44;;;17.19;71.20
71948;BME280;63257;55.082;38.772;2023-07-13T09:27:40;98975.28;;;17.20;71.56
71948;BME280;63257;55.082;38.772;2023-07-13T09:32:47;98975.09;;;17.04;74.38
71948;BME280;63257;55.082;38.772;2023-07-13T09:35:19;98983.91;;;17.04;73.77
71948;BME280;63257;55.082;38.772;2023-07-13T09:37:46;98965.97;;;16.96;74.33
71948;BME280;63257;55.082;38.772;2023-07-13T09:40:25;98979.75;;;16.92;75.05
71948;BME280;63257;55.082;38.772;2023-07-13T09:42:54;98962.50;;;16.86;74.63
71948;BME280;63257;55.082;38.772;2023-07-13T09:45:30;98968.41;;;16.90;75.14
71948;BME280;63257;55.082;38.772;2023-07-13T09:48:04;98980.59;;;16.92;75.62
71948;BME280;63257;55.082;38.772;2023-07-13T09:50:31;98944.97;;;16.84;74.35
71948;BME280;63257;55.082;38.772;2023-07-13T09:52:56;98965.09;;;17.06;78.00
71948;BME280;63257;55.082;38.772;2023-07-13T09:55:31;98972.56;;;17.30;74.99
71948;BME280;63257;55.082;38.772;2023-07-13T10:00:40;98971.91;;;17.46;73.80
71948;BME280;63257;55.082;38.772;2023-07-13T10:03:21;98975.75;;;17.61;74.04
71948;BME280;63257;55.082;38.772;2023-07-13T10:05:50;98958.81;;;17.71;73.89
71948;BME280;63257;55.082;38.772;2023-07-13T10:10:44;98976.50;;;17.72;74.22
71948;BME280;63257;55.082;38.772;2023-07-13T10:13:34;98980.56;;;17.76;72.23
71948;BME280;63257;55.082;38.772;2023-07-13T10:16:04;98983.47;;;17.83;73.20
71948;BME280;63257;55.082;38.772;2023-07-13T10:18:58;98983.84;;;17.88;74.79
71948;BME280;63257;55.082;38.772;2023-07-13T10:21:28;98980.59;;;17.94;71.88
71948;BME280;63257;55.082;38.772;2023-07-13T10:24:15;98977.25;;;18.10;73.46
71948;BME280;63257;55.082;38.772;2023-07-13T10:26:52;98959.31;;;18.02;73.07
71948;BME280;63257;55.082;38.772;2023-07-13T10:29:22;98968.78;;;17.96;73.03
71948;BME280;63257;55.082;38.772;2023-07-13T10:31:49;98957.00;;;17.89;73.39
71948;BME280;63257;55.082;38.772;2023-07-13T10:34:15;98962.41;;;17.79;74.66
71948;BME280;63257;55.082;38.772;2023-07-13T10:36:47;98981.09;;;17.79;75.91
71948;BME280;63257;55.082;38.772;2023-07-13T10:39:20;98964.63;;;17.66;75.02
71948;BME280;63257;55.082;38.772;2023-07-13T10:41:52;98958.63;;;17.82;75.48
71948;BME280;63257;55.082;38.772;2023-07-13T10:44:25;98949.66;;;17.73;72.90
71948;BME280;63257;55.082;38.772;2023-07-13T10:47:11;98956.38;;;17.77;72.96
71948;BME280;63257;55.082;38.772;2023-07-13T10:49:40;98953.63;;;17.69;71.54
71948;BME280;63257;55.082;38.772;2023-07-13T10:52:40;98968.97;;;17.67;73.26
71948;BME280;63257;55.082;38.772;2023-07-13T10:58:34;98958.19;;;17.41;72.21
71948;BME280;63257;55.082;38.772;2023-07-13T11:03:48;98964.75;;;17.46;70.97
71948;BME280;63257;55.082;38.772;2023-07-13T11:08:57;98941.81;;;17.54;70.05
71948;BME280;63257;55.082;38.772;2023-07-13T11:18:53;98963.16;;;17.90;67.98
71948;BME280;63257;55.082;38.772;2023-07-13T11:21:34;98956.47;;;17.86;68.72
71948;BME280;63257;55.082;38.772;2023-07-13T11:24:18;98956.78;;;17.83;68.91
71948;BME280;63257;55.082;38.772;2023-07-13T11:29:35;98973.09;;;17.79;69.99
71948;BME280;63257;55.082;38.772;2023-07-13T11:32:22;98972.25;;;17.79;68.95
71948;BME280;63257;55.082;38.772;2023-07-13T11:34:49;98965.47;;;17.85;68.89
71948;BME280;63257;55.082;38.772;2023-07-13T11:37:16;98956.03;;;17.90;70.10
71948;BME280;63257;55.082;38.772;2023-07-13T11:39:46;98966.25;;;17.95;68.22
71948;BME280;63257;55.082;38.772;2023-07-13T11:42:13;98974.16;;;17.87;68.83
71948;BME280;63257;55.082;38.772;2023-07-13T11:44:49;98962.19;;;17.73;68.71
71948;BME280;63257;55.082;38.772;2023-07-13T11:47:20;98976.19;;;17.75;70.16
71948;BME280;63257;55.082;38.772;2023-07-13T11:49:53;98968.97;;;17.67;69.91
71948;BME280;63257;55.082;38.772;2023-07-13T11:52:23;98979.34;;;17.70;70.01
71948;BME280;63257;55.082;38.772;2023-07-13T11:54:55;98984.28;;;17.65;69.73
71948;BME280;63257;55.082;38.772;2023-07-13T11:57:47;98994.44;;;17.61;70.30
71948;BME280;63257;55.082;38.772;2023-07-13T12:00:17;98985.38;;;17.44;70.29
71948;BME280;63257;55.082;38.772;2023-07-13T12:02:46;99002.22;;;17.27;70.88
71948;BME280;63257;55.082;38.772;2023-07-13T12:05:16;99006.84;;;17.25;71.83
71948;BME280;63257;55.082;38.772;2023-07-13T12:07:43;99009.59;;;17.05;71.75
71948;BME280;63257;55.082;38.772;2023-07-13T12:15:14;99016.13;;;16.73;71.32
71948;BME280;63257;55.082;38.772;2023-07-13T12:17:41;99009.72;;;16.47;71.54
71948;BME280;63257;55.082;38.772;2023-07-13T12:20:40;99037.59;;;16.42;67.89
71948;BME280;63257;55.082;38.772;2023-07-13T12:23:20;99051.91;;;16.22;67.87
71948;BME280;63257;55.082;38.772;2023-07-13T12:25:47;99047.25;;;16.04;70.06
71948;BME280;63257;55.082;38.772;2023-07-13T12:31:00;99063.28;;;15.64;70.24
71948;BME280;63257;55.082;38.772;2023-07-13T12:33:29;99032.59;;;15.50;70.24
71948;BME280;63257;55.082;38.772;2023-07-13T12:35:55;99059.53;;;15.35;71.76
71948;BME280;63257;55.082;38.772;2023-07-13T12:38:24;99046.69;;;15.09;72.96
71948;BME280;63257;55.082;38.772;2023-07-13T12:40:51;99050.94;;;14.91;74.13
71948;BME280;63257;55.082;38.772;2023-07-13T12:43:20;99046.69;;;14.79;74.23
71948;BME280;63257;55.082;38.772;2023-07-13T12:45:59;99051.03;;;14.80;75.46
71948;BME280;63257;55.082;38.772;2023-07-13T12:48:27;99036.97;;;14.68;76.50
71948;BME280;63257;55.082;38.772;2023-07-13T12:50:54;99042.97;;;14.70;77.83
71948;BME280;63257;55.082;38.772;2023-07-13T12:53:23;99054.00;;;14.65;78.67
71948;BME280;63257;55.082;38.772;2023-07-13T12:55:52;99049.56;;;14.54;78.96
71948;BME280;63257;55.082;38.772;2023-07-13T12:58:39;99054.41;;;14.49;79.87
71948;BME280;63257;55.082;38.772;2023-07-13T13:01:13;99047.03;;;14.53;79.93
71948;BME280;63257;55.082;38.772;2023-07-13T13:03:48;99047.22;;;14.40;78.44
71948;BME280;63257;55.082;38.772;2023-07-13T13:08:50;99046.38;;;14.39;80.72
71948;BME280;63257;55.082;38.772;2023-07-13T13:11:17;99050.03;;;14.38;81.85
71948;BME280;63257;55.082;38.772;2023-07-13T13:13:44;99050.13;;;14.37;82.12
71948;BME280;63257;55.082;38.772;2023-07-13T13:16:18;99055.69;;;14.34;83.48
71948;BME280;63257;55.082;38.772;2023-07-13T13:18:45;99043.44;;;14.21;83.87
71948;BME280;63257;55.082;38.772;2023-07-13T13:21:11;99034.66;;;14.21;85.93
71948;BME280;63257;55.082;38.772;2023-07-13T13:23:37;99029.06;;;14.24;84.91
71948;BME280;63257;55.082;38.772;2023-07-13T13:26:10;98998.97;;;14.14;83.34
71948;BME280;63257;55.082;38.772;2023-07-13T13:28:36;99036.53;;;14.30;81.08
71948;BME280;63257;55.082;38.772;2023-07-13T13:31:02;99029.00;;;14.35;82.52
71948;BME280;63257;55.082;38.772;2023-07-13T13:33:27;99027.09;;;14.37;80.67
71948;BME280;63257;55.082;38.772;2023-07-13T13:35:53;98992.75;;;14.24;80.57
71948;BME280;63257;55.082;38.772;2023-07-13T13:38:25;99005.31;;;14.43;79.39
71948;BME280;63257;55.082;38.772;2023-07-13T13:40:51;99008.72;;;14.46;78.48
71948;BME280;63257;55.082;38.772;2023-07-13T13:43:18;99014.06;;;14.55;79.72
71948;BME280;63257;55.082;38.772;2023-07-13T13:45:45;99015.50;;;14.59;79.37
71948;BME280;63257;55.082;38.772;2023-07-13T13:48:17;98996.84;;;14.50;79.87
71948;BME280;63257;55.082;38.772;2023-07-13T13:50:43;99007.06;;;14.54;81.08
71948;BME280;63257;55.082;38.772;2023-07-13T13:53:11;99009.47;;;14.57;81.45
71948;BME280;63257;55.082;38.772;2023-07-13T13:55:39;99017.06;;;14.62;82.63